createdAt,value
2022-11-29T00:02:18.804Z,99731.63
2022-11-29T00:04:55.770Z,99729.38
2022-11-29T00:07:30.490Z,99730.53
2022-11-29T00:10:01.690Z,99727.41
2022-11-29T00:12:33.896Z,99721.69
2022-11-29T00:15:06.028Z,99721.59
2022-11-29T00:17:36.137Z,99725.19
2022-11-29T00:20:19.053Z,99725.22
2022-11-29T00:22:55.638Z,99729.72
2022-11-29T00:25:26.529Z,99727.47
2022-11-29T00:28:12.898Z,99723.09
2022-11-29T00:30:43.508Z,99726.50
2022-11-29T00:33:13.197Z,99721.38
2022-11-29T00:35:42.580Z,99717.69
2022-11-29T00:38:13.047Z,99721.53
2022-11-29T00:40:42.568Z,99723.22
2022-11-29T00:43:22.383Z,99727.53
2022-11-29T00:46:01.901Z,99729.00
2022-11-29T00:48:39.658Z,99727.41
2022-11-29T00:51:21.819Z,99731.75
2022-11-29T00:53:51.868Z,99732.28
2022-11-29T00:56:33.947Z,99735.31
2022-11-29T00:59:09.265Z,99727.88
2022-11-29T01:01:47.741Z,99737.34
2022-11-29T01:04:19.322Z,99724.75
2022-11-29T01:06:49.893Z,99722.59
2022-11-29T01:09:22.992Z,99718.81
2022-11-29T01:11:51.470Z,99719.81
2022-11-29T01:14:27.712Z,99722.19
2022-11-29T01:17:00.411Z,99719.25
2022-11-29T01:19:31.565Z,99726.69
2022-11-29T01:22:10.109Z,99725.53
2022-11-29T01:24:49.184Z,99725.34
2022-11-29T01:27:25.783Z,99724.06
2022-11-29T01:29:57.692Z,99717.91
2022-11-29T01:32:28.607Z,99719.59
2022-11-29T01:35:00.666Z,99729.72
2022-11-29T01:37:34.274Z,99729.41
2022-11-29T01:40:02.956Z,99730.56
2022-11-29T01:42:39.456Z,99719.84
2022-11-29T01:45:24.817Z,99725.94
2022-11-29T01:48:07.473Z,99722.00
2022-11-29T01:50:36.114Z,99719.16
2022-11-29T01:53:12.681Z,99722.38
2022-11-29T01:55:44.804Z,99721.75
2022-11-29T01:58:26.613Z,99720.91
2022-11-29T02:01:04.468Z,99718.38
2022-11-29T02:03:37.365Z,99707.94
2022-11-29T02:06:06.662Z,99713.41
2022-11-29T02:08:44.805Z,99716.78
2022-11-29T02:11:38.220Z,99717.06
2022-11-29T02:14:19.833Z,99717.31
2022-11-29T02:17:01.011Z,99719.47
2022-11-29T02:19:55.504Z,99713.66
2022-11-29T02:22:32.003Z,99713.66
2022-11-29T02:25:16.843Z,99714.19
2022-11-29T02:28:41.225Z,99707.72
2022-11-29T02:31:48.638Z,99722.38
2022-11-29T02:34:37.464Z,99710.31
2022-11-29T02:37:18.332Z,99714.25
2022-11-29T02:40:37.922Z,99718.19
2022-11-29T02:43:37.879Z,99722.22
2022-11-29T02:46:26.874Z,99718.56
2022-11-29T02:49:18.960Z,99723.66
2022-11-29T02:51:55.516Z,99726.66
2022-11-29T02:54:31.516Z,99722.72
2022-11-29T02:57:04.367Z,99729.59
2022-11-29T02:59:57.373Z,99732.63
2022-11-29T03:02:34.421Z,99736.94
2022-11-29T03:05:16.918Z,99741.59
2022-11-29T03:07:57.206Z,99743.72
2022-11-29T03:10:35.193Z,99741.38
2022-11-29T03:13:06.690Z,99739.81
2022-11-29T03:15:43.021Z,99742.44
2022-11-29T03:18:31.356Z,99742.94
2022-11-29T03:21:12.215Z,99741.88
2022-11-29T03:23:48.997Z,99745.97
2022-11-29T03:26:27.352Z,99740.72
2022-11-29T03:29:03.823Z,99740.47
2022-11-29T03:34:28.547Z,99751.81
2022-11-29T03:37:05.491Z,99751.81
2022-11-29T03:39:57.835Z,99756.91
2022-11-29T03:42:39.839Z,99749.09
2022-11-29T03:45:17.207Z,99753.69
2022-11-29T03:48:00.320Z,99758.38
2022-11-29T03:50:39.813Z,99759.28
2022-11-29T03:53:17.681Z,99755.56
2022-11-29T03:56:27.539Z,99754.22
2022-11-29T03:59:10.863Z,99756.31
2022-11-29T04:02:07.157Z,99757.63
2022-11-29T04:05:12.817Z,99750.84
2022-11-29T04:07:54.859Z,99750.38
2022-11-29T04:10:47.869Z,99765.03
2022-11-29T04:13:41.906Z,99760.19
2022-11-29T04:16:41.404Z,99763.78
2022-11-29T04:19:51.942Z,99757.63
2022-11-29T04:22:47.524Z,99758.97
2022-11-29T04:25:44.095Z,99763.94
2022-11-29T04:28:45.538Z,99763.22
2022-11-29T04:31:28.800Z,99763.50
2022-11-29T04:34:29.444Z,99768.06
2022-11-29T04:37:21.201Z,99770.91
2022-11-29T04:40:14.962Z,99774.47
2022-11-29T04:43:19.122Z,99784.13
2022-11-29T04:46:28.610Z,99776.97
2022-11-29T04:49:28.554Z,99780.22
2022-11-29T04:52:12.833Z,99788.16
2022-11-29T04:54:49.134Z,99781.88
2022-11-29T04:57:27.431Z,99779.38
2022-11-29T05:00:08.596Z,99791.94
2022-11-29T05:02:47.894Z,99787.00
2022-11-29T05:05:25.660Z,99786.47
2022-11-29T05:08:05.262Z,99797.84
2022-11-29T05:10:39.526Z,99796.22
2022-11-29T05:13:16.405Z,99809.41
2022-11-29T05:15:57.653Z,99800.25
2022-11-29T05:18:39.578Z,99803.66
2022-11-29T05:21:20.505Z,99805.53
2022-11-29T05:24:01.714Z,99804.34
2022-11-29T05:26:38.731Z,99817.81
2022-11-29T05:29:19.746Z,99814.13
2022-11-29T05:32:13.893Z,99814.31
2022-11-29T05:34:59.116Z,99815.25
2022-11-29T05:37:43.610Z,99815.16
2022-11-29T05:40:52.854Z,99820.81
2022-11-29T05:44:08.656Z,99822.53
2022-11-29T05:46:55.383Z,99823.88
2022-11-29T05:49:33.853Z,99826.09
2022-11-29T05:52:20.897Z,99830.44
2022-11-29T05:55:16.769Z,99823.34
2022-11-29T05:57:53.710Z,99825.78
2022-11-29T06:00:33.153Z,99821.91
2022-11-29T06:03:10.868Z,99830.59
2022-11-29T06:05:45.918Z,99830.44
2022-11-29T06:08:27.046Z,99832.28
2022-11-29T06:11:17.123Z,99836.84
2022-11-29T06:13:54.667Z,99834.75
2022-11-29T06:20:09.232Z,99837.00
2022-11-29T06:23:01.561Z,99843.28
2022-11-29T06:25:51.644Z,99848.56
2022-11-29T06:28:40.872Z,99846.66
2022-11-29T06:31:16.891Z,99849.19
2022-11-29T06:33:51.968Z,99854.56
2022-11-29T06:36:25.170Z,99856.06
2022-11-29T06:38:58.616Z,99857.34
2022-11-29T06:41:44.437Z,99864.13
2022-11-29T06:44:15.616Z,99864.13
2022-11-29T06:46:58.911Z,99868.22
2022-11-29T06:49:35.221Z,99868.50
2022-11-29T06:52:25.293Z,99874.78
2022-11-29T06:55:18.941Z,99875.75
2022-11-29T06:58:04.168Z,99876.03
2022-11-29T07:00:45.654Z,99868.81
2022-11-29T07:03:34.205Z,99873.19
2022-11-29T07:06:12.275Z,99867.81
2022-11-29T07:08:44.660Z,99876.56
2022-11-29T07:11:24.858Z,99867.63
2022-11-29T07:14:02.768Z,99874.47
2022-11-29T07:16:40.677Z,99870.38
2022-11-29T07:19:17.196Z,99878.47
2022-11-29T07:21:56.606Z,99875.78
2022-11-29T07:24:42.936Z,99874.47
2022-11-29T07:27:22.094Z,99879.94
2022-11-29T07:30:10.362Z,99886.16
2022-11-29T07:32:58.758Z,99886.97
2022-11-29T07:35:46.409Z,99881.91
2022-11-29T07:38:24.991Z,99891.50
2022-11-29T07:40:57.012Z,99896.81
2022-11-29T07:43:40.438Z,99891.91
2022-11-29T07:46:11.116Z,99897.63
2022-11-29T07:48:44.164Z,99906.44
2022-11-29T07:51:21.931Z,99904.75
2022-11-29T07:53:50.325Z,99907.03
2022-11-29T07:56:27.981Z,99904.56
2022-11-29T07:58:56.104Z,99904.78
2022-11-29T08:01:25.397Z,99913.47
2022-11-29T08:04:01.127Z,99915.81
2022-11-29T08:06:33.288Z,99909.88
2022-11-29T08:09:03.788Z,99912.72
2022-11-29T08:11:33.139Z,99914.63
2022-11-29T08:14:03.992Z,99918.38
2022-11-29T08:16:32.266Z,99924.44
2022-11-29T08:19:09.606Z,99925.91
2022-11-29T08:21:48.560Z,99931.53
2022-11-29T08:24:28.853Z,99928.84
2022-11-29T08:26:58.693Z,99928.00
2022-11-29T08:29:29.924Z,99925.16
2022-11-29T08:32:13.997Z,99941.22
2022-11-29T08:34:46.091Z,99935.78
2022-11-29T08:37:14.866Z,99933.72
2022-11-29T08:39:51.823Z,99931.19
2022-11-29T08:42:32.062Z,99940.38
2022-11-29T08:45:09.834Z,99935.66
2022-11-29T08:47:50.336Z,99946.81
2022-11-29T08:50:23.418Z,99947.88
2022-11-29T08:53:11.687Z,99950.13
2022-11-29T08:55:46.830Z,99947.66
2022-11-29T08:58:27.655Z,99950.50
2022-11-29T09:01:04.953Z,99951.75
2022-11-29T09:03:54.307Z,99946.16
2022-11-29T09:06:34.818Z,99957.19
2022-11-29T09:09:03.345Z,99942.91
2022-11-29T09:11:34.573Z,99949.63
2022-11-29T09:14:11.058Z,99960.53
2022-11-29T09:16:42.013Z,99949.91
2022-11-29T09:19:10.534Z,99961.13
2022-11-29T09:21:55.082Z,99949.63
2022-11-29T09:24:23.152Z,99951.25
2022-11-29T09:26:53.087Z,99952.97
2022-11-29T09:29:35.088Z,99936.50
2022-11-29T09:32:13.033Z,99951.09
2022-11-29T09:34:42.581Z,99948.81
2022-11-29T09:37:17.318Z,99947.94
2022-11-29T09:39:48.739Z,99942.38
2022-11-29T09:42:40.118Z,99943.25
2022-11-29T09:45:12.174Z,99946.97
2022-11-29T09:48:30.048Z,99949.50
2022-11-29T09:51:08.158Z,99955.78
2022-11-29T09:54:11.025Z,99944.94
2022-11-29T09:56:43.764Z,99951.78
2022-11-29T09:59:20.510Z,99943.56
2022-11-29T10:01:54.659Z,99940.59
2022-11-29T10:04:29.052Z,99946.03
2022-11-29T10:07:06.943Z,99944.13
2022-11-29T10:09:57.561Z,99942.94
2022-11-29T10:12:35.986Z,99952.28
2022-11-29T10:15:12.128Z,99941.06
2022-11-29T10:17:50.761Z,99941.25
2022-11-29T10:20:20.596Z,99937.34
2022-11-29T10:22:53.591Z,99945.50
2022-11-29T10:25:26.813Z,99938.41
2022-11-29T10:27:55.420Z,99944.47
2022-11-29T10:30:23.797Z,99941.47
2022-11-29T10:32:57.264Z,99940.63
2022-11-29T10:35:25.363Z,99925.25
2022-11-29T10:38:22.639Z,99931.63
2022-11-29T10:40:49.014Z,99930.88
2022-11-29T10:43:17.416Z,99928.13
2022-11-29T10:45:50.647Z,99938.47
2022-11-29T10:48:20.211Z,99923.75
2022-11-29T10:50:50.662Z,99931.44
2022-11-29T10:53:21.197Z,99934.41
2022-11-29T10:55:54.405Z,99924.19
2022-11-29T10:58:28.017Z,99924.75
2022-11-29T11:00:57.995Z,99915.81
2022-11-29T11:03:29.896Z,99927.47
2022-11-29T11:06:03.732Z,99920.31
2022-11-29T11:08:32.670Z,99919.25
2022-11-29T11:11:04.462Z,99937.44
2022-11-29T11:13:33.636Z,99924.84
2022-11-29T11:16:11.282Z,99917.63
2022-11-29T11:18:39.519Z,99926.34
2022-11-29T11:21:10.629Z,99924.16
2022-11-29T11:23:55.804Z,99927.94
2022-11-29T11:26:37.750Z,99929.19
2022-11-29T11:29:07.820Z,99923.78
2022-11-29T11:31:48.699Z,99930.88
2022-11-29T11:34:38.105Z,99934.13
2022-11-29T11:37:30.124Z,99927.25
2022-11-29T11:40:01.581Z,99926.66
2022-11-29T11:42:48.365Z,99929.09
2022-11-29T11:45:31.228Z,99924.84
2022-11-29T11:48:05.942Z,99929.63
2022-11-29T11:50:42.037Z,99926.03
2022-11-29T11:53:28.214Z,99926.63
2022-11-29T11:56:20.943Z,99926.25
2022-11-29T11:59:10.569Z,99932.06
2022-11-29T12:04:25.765Z,99921.47
2022-11-29T12:07:07.551Z,99918.78
2022-11-29T12:09:43.369Z,99922.19
2022-11-29T12:12:19.080Z,99922.31
2022-11-29T12:15:03.268Z,99925.25
2022-11-29T12:17:41.851Z,99922.41
2022-11-29T12:20:18.287Z,99913.81
2022-11-29T12:22:52.920Z,99921.44
2022-11-29T12:25:23.892Z,99922.38
2022-11-29T12:27:55.200Z,99920.38
2022-11-29T12:30:24.711Z,99918.06
2022-11-29T12:33:01.737Z,99924.72
2022-11-29T12:35:39.612Z,99917.09
2022-11-29T12:38:13.906Z,99917.38
2022-11-29T12:40:49.788Z,99917.78
2022-11-29T12:43:25.826Z,99909.88
2022-11-29T12:46:02.267Z,99907.31
2022-11-29T12:48:34.690Z,99914.38
2022-11-29T12:51:09.449Z,99916.25
2022-11-29T12:53:51.684Z,99919.81
2022-11-29T12:56:25.972Z,99922.69
2022-11-29T12:59:02.993Z,99916.41
2022-11-29T13:01:37.841Z,99919.72
2022-11-29T13:04:13.236Z,99918.34
2022-11-29T13:06:46.669Z,99925.94
2022-11-29T13:09:32.367Z,99914.28
2022-11-29T13:12:04.633Z,99921.97
2022-11-29T13:14:55.754Z,99921.56
2022-11-29T13:17:33.669Z,99931.88
2022-11-29T13:20:05.456Z,99928.75
2022-11-29T13:22:37.086Z,99920.41
2022-11-29T13:25:13.079Z,99928.50
2022-11-29T13:27:47.922Z,99925.13
2022-11-29T13:30:17.005Z,99940.19
2022-11-29T13:32:51.539Z,99936.50
2022-11-29T13:35:23.225Z,99943.38
2022-11-29T13:37:55.638Z,99942.63
2022-11-29T13:40:30.188Z,99947.09
2022-11-29T13:43:02.412Z,99939.38
2022-11-29T13:45:36.200Z,99949.50
2022-11-29T13:48:27.868Z,99941.16
2022-11-29T13:50:57.171Z,99946.66
2022-11-29T13:53:27.185Z,99950.19
2022-11-29T13:56:01.716Z,99943.81
2022-11-29T13:58:37.826Z,99947.00
2022-11-29T14:01:11.484Z,99947.47
2022-11-29T14:03:42.076Z,99954.63
2022-11-29T14:06:13.291Z,99961.53
2022-11-29T14:09:18.343Z,99952.94
2022-11-29T14:11:50.193Z,99958.84
2022-11-29T14:14:26.008Z,99965.84
2022-11-29T14:16:56.050Z,99962.66
2022-11-29T14:19:33.487Z,99956.06
2022-11-29T14:22:22.538Z,99963.25
2022-11-29T14:25:08.156Z,99972.19
2022-11-29T14:27:59.872Z,99963.66
2022-11-29T14:30:55.851Z,99971.47
2022-11-29T14:33:40.156Z,99967.50
2022-11-29T14:36:25.633Z,99967.84
2022-11-29T14:39:00.146Z,99974.00
2022-11-29T14:41:33.609Z,99977.66
2022-11-29T14:44:07.192Z,99974.31
2022-11-29T14:46:35.299Z,99971.72
2022-11-29T14:49:04.731Z,99972.81
2022-11-29T14:51:35.139Z,99979.84
2022-11-29T14:54:07.482Z,99981.50
2022-11-29T14:56:42.712Z,99976.66
2022-11-29T14:59:56.540Z,99987.47
2022-11-29T15:02:33.926Z,99981.50
2022-11-29T15:05:14.350Z,99983.00
2022-11-29T15:07:46.745Z,99986.28
2022-11-29T15:10:19.882Z,99989.19
2022-11-29T15:12:48.784Z,99983.09
2022-11-29T15:15:45.137Z,99994.41
2022-11-29T15:18:23.707Z,99986.69
2022-11-29T15:21:01.651Z,99999.41
2022-11-29T15:23:40.934Z,99997.94
2022-11-29T15:26:16.041Z,99994.63
2022-11-29T15:28:44.181Z,100001.63
2022-11-29T15:31:14.777Z,99994.41
2022-11-29T15:33:44.875Z,99998.66
2022-11-29T15:36:18.528Z,99993.28
2022-11-29T15:38:50.273Z,99997.53
2022-11-29T15:41:23.325Z,99994.19
2022-11-29T15:43:54.522Z,99996.53
2022-11-29T15:46:25.549Z,99990.28
2022-11-29T15:48:53.673Z,99991.81
2022-11-29T15:51:28.173Z,99994.28
2022-11-29T15:54:12.096Z,99993.19
2022-11-29T15:56:44.986Z,99992.47
2022-11-29T15:59:18.096Z,100002.50
2022-11-29T16:01:47.850Z,99997.50
2022-11-29T16:04:19.106Z,99994.88
2022-11-29T16:06:48.063Z,99990.00
2022-11-29T16:09:19.422Z,99996.25
2022-11-29T16:11:48.227Z,99998.13
2022-11-29T16:14:19.856Z,100002.69
2022-11-29T16:16:49.680Z,100000.78
2022-11-29T16:19:24.259Z,100004.16
2022-11-29T16:22:13.703Z,100002.59
2022-11-29T16:24:52.721Z,100004.34
2022-11-29T16:27:22.099Z,100003.03
2022-11-29T16:29:52.139Z,99993.69
2022-11-29T16:32:27.500Z,99994.94
2022-11-29T16:34:57.538Z,99996.06
2022-11-29T16:37:27.329Z,99999.94
2022-11-29T16:40:01.724Z,99995.31
2022-11-29T16:42:31.961Z,99999.28
2022-11-29T16:45:31.817Z,100008.69
2022-11-29T16:48:02.921Z,100008.41
2022-11-29T16:50:31.957Z,100011.81
2022-11-29T16:53:34.326Z,100010.78
2022-11-29T16:56:04.832Z,100015.69
2022-11-29T16:58:38.736Z,100016.47
2022-11-29T17:01:18.617Z,100016.25
2022-11-29T17:03:48.897Z,100020.50
2022-11-29T17:06:20.314Z,100016.81
2022-11-29T17:08:49.155Z,100023.91
2022-11-29T17:11:19.999Z,100016.44
2022-11-29T17:13:48.729Z,100019.66
2022-11-29T17:16:18.540Z,100028.34
2022-11-29T17:18:47.081Z,100025.22
2022-11-29T17:21:19.654Z,100033.31
2022-11-29T17:23:49.137Z,100031.34
2022-11-29T17:26:21.640Z,100041.00
2022-11-29T17:28:51.697Z,100039.00
2022-11-29T17:31:24.064Z,100036.84
2022-11-29T17:33:52.667Z,100029.84
2022-11-29T17:36:22.742Z,100035.78
2022-11-29T17:38:52.005Z,100045.06
2022-11-29T17:41:23.093Z,100040.50
2022-11-29T17:43:52.209Z,100040.78
2022-11-29T17:46:23.077Z,100051.56
2022-11-29T17:48:53.446Z,100037.97
2022-11-29T17:54:13.437Z,100065.44
2022-11-29T17:56:45.872Z,100057.28
2022-11-29T17:59:15.977Z,100055.06
2022-11-29T18:01:47.488Z,100059.94
2022-11-29T18:04:18.144Z,100060.34
2022-11-29T18:06:50.430Z,100065.81
2022-11-29T18:09:21.875Z,100068.63
2022-11-29T18:11:52.916Z,100065.75
2022-11-29T18:14:24.300Z,100055.31
2022-11-29T18:16:53.854Z,100067.19
2022-11-29T18:19:24.013Z,100066.09
2022-11-29T18:21:55.137Z,100064.31
2022-11-29T18:24:23.854Z,100061.94
2022-11-29T18:26:56.261Z,100065.53
2022-11-29T18:29:32.779Z,100062.38
2022-11-29T18:32:08.397Z,100058.97
2022-11-29T18:34:38.986Z,100071.69
2022-11-29T18:37:14.085Z,100065.31
2022-11-29T18:39:47.432Z,100054.16
2022-11-29T18:42:18.191Z,100065.84
2022-11-29T18:44:47.997Z,100061.06
2022-11-29T18:47:18.089Z,100065.69
2022-11-29T18:49:48.665Z,100064.44
2022-11-29T18:52:18.961Z,100064.44
2022-11-29T18:54:48.748Z,100058.56
2022-11-29T18:57:19.900Z,100066.44
2022-11-29T18:59:50.434Z,100072.38
2022-11-29T19:02:31.369Z,100076.41
2022-11-29T19:05:07.859Z,100085.66
2022-11-29T19:07:53.415Z,100087.59
2022-11-29T19:10:36.336Z,100075.88
2022-11-29T19:13:22.133Z,100083.56
2022-11-29T19:16:05.968Z,100077.66
2022-11-29T19:18:42.469Z,100075.78
2022-11-29T19:21:28.402Z,100081.88
2022-11-29T19:24:16.019Z,100082.47
2022-11-29T19:27:03.147Z,100077.06
2022-11-29T19:29:40.210Z,100070.22
2022-11-29T19:32:20.580Z,100077.53
2022-11-29T19:35:17.842Z,100075.19
2022-11-29T19:37:54.266Z,100083.19
2022-11-29T19:40:25.959Z,100084.75
2022-11-29T19:43:06.904Z,100090.75
2022-11-29T19:45:44.844Z,100102.72
2022-11-29T19:48:20.720Z,100087.00
2022-11-29T19:51:04.959Z,100098.06
2022-11-29T19:53:57.414Z,100098.41
2022-11-29T19:56:35.451Z,100096.91
2022-11-29T19:59:17.213Z,100097.38
2022-11-29T20:02:01.977Z,100108.88
2022-11-29T20:04:42.246Z,100107.41
2022-11-29T20:07:14.751Z,100108.16
2022-11-29T20:09:47.045Z,100110.19
2022-11-29T20:12:23.628Z,100106.25
2022-11-29T20:15:05.993Z,100112.13
2022-11-29T20:17:43.869Z,100107.13
2022-11-29T20:20:21.494Z,100113.28
2022-11-29T20:23:12.344Z,100114.84
2022-11-29T20:25:45.149Z,100116.13
2022-11-29T20:28:20.147Z,100111.56
2022-11-29T20:30:59.975Z,100118.03
2022-11-29T20:33:46.940Z,100120.28
2022-11-29T20:36:44.874Z,100112.09
2022-11-29T20:39:33.085Z,100117.13
2022-11-29T20:42:29.036Z,100127.66
2022-11-29T20:45:11.494Z,100127.16
2022-11-29T20:47:52.030Z,100119.66
2022-11-29T20:50:31.610Z,100119.75
2022-11-29T20:53:25.111Z,100125.50
2022-11-29T20:56:00.186Z,100117.28
2022-11-29T20:58:39.291Z,100125.34
2022-11-29T21:01:31.071Z,100127.41
2022-11-29T21:04:02.244Z,100122.88
2022-11-29T21:06:44.330Z,100121.00
2022-11-29T21:09:19.706Z,100125.34
2022-11-29T21:11:54.096Z,100122.38
2022-11-29T21:14:37.216Z,100115.72
2022-11-29T21:17:09.319Z,100121.09
2022-11-29T21:19:49.695Z,100126.13
2022-11-29T21:22:34.839Z,100120.97
2022-11-29T21:25:12.207Z,100130.97
2022-11-29T21:27:43.981Z,100127.78
2022-11-29T21:30:23.340Z,100129.22
2022-11-29T21:32:54.127Z,100125.88
2022-11-29T21:35:24.692Z,100126.31
2022-11-29T21:38:04.084Z,100126.78
2022-11-29T21:40:34.396Z,100124.50
2022-11-29T21:43:05.720Z,100125.06
2022-11-29T21:45:42.051Z,100124.59
2022-11-29T21:48:27.810Z,100131.31
2022-11-29T21:51:00.041Z,100126.94
2022-11-29T21:53:35.470Z,100128.41
2022-11-29T21:56:08.253Z,100128.53
2022-11-29T21:58:40.814Z,100112.75
2022-11-29T22:01:24.356Z,100123.66
2022-11-29T22:03:55.474Z,100119.78
2022-11-29T22:06:35.659Z,100117.31
2022-11-29T22:09:09.777Z,100120.44
2022-11-29T22:11:38.445Z,100129.44
2022-11-29T22:14:23.854Z,100116.56
2022-11-29T22:17:04.950Z,100122.97
2022-11-29T22:19:39.669Z,100123.16
2022-11-29T22:22:20.025Z,100118.66
2022-11-29T22:24:52.819Z,100114.78
2022-11-29T22:27:24.013Z,100123.34
2022-11-29T22:30:00.223Z,100122.28
2022-11-29T22:32:31.080Z,100117.16
2022-11-29T22:35:00.028Z,100110.19
2022-11-29T22:37:31.160Z,100109.75
2022-11-29T22:40:08.542Z,100104.94
2022-11-29T22:42:43.646Z,100103.19
2022-11-29T22:45:24.444Z,100108.63
2022-11-29T22:47:54.212Z,100105.56
2022-11-29T22:50:24.926Z,100106.75
2022-11-29T22:52:55.598Z,100107.38
2022-11-29T22:55:31.333Z,100111.03
2022-11-29T22:58:09.178Z,100110.41
2022-11-29T23:00:44.946Z,100111.88
2022-11-29T23:03:18.229Z,100117.69
2022-11-29T23:05:48.879Z,100114.13
2022-11-29T23:08:18.624Z,100113.47
2022-11-29T23:10:57.210Z,100117.88
2022-11-29T23:13:28.027Z,100117.31
2022-11-29T23:16:03.943Z,100121.72
2022-11-29T23:18:42.273Z,100120.47
2022-11-29T23:21:13.995Z,100115.78
2022-11-29T23:23:42.336Z,100128.88
2022-11-29T23:26:19.194Z,100118.94
2022-11-29T23:28:55.581Z,100119.53
2022-11-29T23:31:26.666Z,100125.16
2022-11-29T23:33:57.027Z,100117.25
2022-11-29T23:36:29.422Z,100112.41
2022-11-29T23:39:08.713Z,100114.66
2022-11-29T23:41:45.792Z,100117.28
2022-11-29T23:44:19.487Z,100114.22
2022-11-29T23:46:48.219Z,100123.88
2022-11-29T23:49:25.562Z,100116.94
2022-11-29T23:51:57.703Z,100121.88
2022-11-29T23:54:28.494Z,100117.81
2022-11-29T23:56:58.324Z,100119.84
2022-11-29T23:59:27.040Z,100119.66
